Time;durP1;ratioP1;P1;durP2;ratioP2;P2;SDS_P1;SDS_P2;PMS_P1;PMS_P2;Temp;Humidity;BMP_temperature;BMP_pressure;BME280_temperature;BME280_humidity;BME280_pressure;Samples;Min_cycle;Max_cycle;Signal;HPM_P1;HPM_P2
2023/07/04 00:02:20;;;;;;;0.80;0.60;;;21.60;62.00;;;;;;6271062;28;20040;-73
2023/07/04 00:05:23;;;;;;;1.30;0.80;;;21.60;62.00;;;;;;6271105;28;20032;-72
2023/07/04 00:08:26;;;;;;;1.10;0.70;;;21.60;62.10;;;;;;6270877;28;20057;-73
2023/07/04 00:11:29;;;;;;;1.45;0.82;;;21.60;62.10;;;;;;6270973;28;20025;-73
2023/07/04 00:14:30;;;;;;;1.55;0.98;;;21.60;62.00;;;;;;6270712;28;20056;-72
2023/07/04 00:17:31;;;;;;;2.25;1.17;;;21.60;62.10;;;;;;6267265;28;20021;-73
2023/07/04 00:20:33;;;;;;;1.10;0.80;;;21.60;62.10;;;;;;6264300;28;20025;-73
2023/07/04 00:23:35;;;;;;;1.10;0.80;;;21.60;63.00;;;;;;6270453;28;20038;-72
2023/07/04 00:26:36;;;;;;;0.73;0.73;;;21.60;62.20;;;;;;6246701;28;20025;-73
2023/07/04 00:29:38;;;;;;;1.27;0.90;;;21.60;62.10;;;;;;6270152;28;20025;-72
2023/07/04 00:32:38;;;;;;;1.05;0.70;;;21.60;62.10;;;;;;6265704;28;20036;-72
2023/07/04 00:35:43;;;;;;;0.90;0.70;;;21.60;62.20;;;;;;6270190;28;20021;-73
2023/07/04 00:38:45;;;;;;;1.20;0.80;;;21.60;62.10;;;;;;6270240;28;20487;-73
2023/07/04 00:41:45;;;;;;;1.00;0.73;;;21.60;62.00;;;;;;6270129;28;20053;-73
2023/07/04 00:44:54;;;;;;;0.70;0.50;;;21.60;62.10;;;;;;6269930;28;20529;-72
2023/07/04 00:48:00;;;;;;;1.23;0.82;;;21.60;62.10;;;;;;6270039;28;20086;-72
2023/07/04 00:51:04;;;;;;;0.75;0.70;;;21.60;62.10;;;;;;6268513;28;20094;-72
2023/07/04 00:54:05;;;;;;;0.82;0.73;;;21.60;62.10;;;;;;6268225;28;20040;-72
2023/07/04 00:57:06;;;;;;;1.08;0.88;;;21.60;62.10;;;;;;6268132;28;20053;-72
2023/07/04 01:00:17;;;;;;;1.88;0.60;;;21.60;63.00;;;;;;6267664;28;20376;-72
2023/07/04 01:03:20;;;;;;;0.90;0.70;;;21.60;62.10;;;;;;6267565;28;20529;-72
2023/07/04 01:06:32;;;;;;;1.23;0.82;;;21.60;62.10;;;;;;6267654;28;20020;-72
2023/07/04 01:09:35;;;;;;;1.05;0.82;;;21.60;62.10;;;;;;6267547;28;20028;-72
2023/07/04 01:12:37;;;;;;;0.88;0.60;;;21.60;62.10;;;;;;6267984;28;20021;-72
2023/07/04 01:15:37;;;;;;;0.73;0.68;;;21.60;62.20;;;;;;6262536;28;20032;-72
2023/07/04 01:18:41;;;;;;;1.00;0.70;;;21.60;62.10;;;;;;6267626;28;20052;-72
2023/07/04 01:21:45;;;;;;;1.10;0.75;;;21.60;62.10;;;;;;6267567;28;20040;-74
2023/07/04 01:24:53;;;;;;;1.15;0.80;;;21.60;62.20;;;;;;6263932;28;20583;-72
2023/07/04 01:27:59;;;;;;;0.93;0.85;;;21.60;62.20;;;;;;6267537;28;20021;-72
2023/07/04 01:31:00;;;;;;;1.30;0.90;;;21.60;62.20;;;;;;6267129;28;20049;-72
2023/07/04 01:34:03;;;;;;;0.80;0.70;;;21.60;62.10;;;;;;6267506;28;20361;-72
2023/07/04 01:37:05;;;;;;;1.00;0.80;;;21.60;62.10;;;;;;6264442;28;20029;-72
2023/07/04 01:40:09;;;;;;;1.00;0.70;;;21.60;62.10;;;;;;6267207;28;20488;-72
2023/07/04 01:43:10;;;;;;;1.00;0.90;;;21.60;62.20;;;;;;6260950;28;20566;-72
2023/07/04 01:46:10;;;;;;;1.00;0.75;;;21.60;62.20;;;;;;6267250;28;20035;-72
2023/07/04 01:49:11;;;;;;;0.93;0.70;;;21.60;62.20;;;;;;6267337;28;20024;-73
2023/07/04 01:52:12;;;;;;;0.95;0.70;;;21.60;62.10;;;;;;6267307;28;20025;-72
2023/07/04 01:55:14;;;;;;;0.90;0.65;;;21.60;62.20;;;;;;6222603;28;20116;-72
2023/07/04 01:58:15;;;;;;;1.30;0.95;;;21.60;63.00;;;;;;6248399;28;20062;-72
2023/07/04 02:01:15;;;;;;;2.00;0.93;;;21.60;62.10;;;;;;6266991;28;20704;-72
2023/07/04 02:04:16;;;;;;;1.27;0.90;;;21.60;62.20;;;;;;6267149;28;20510;-72
2023/07/04 02:07:17;;;;;;;1.02;0.77;;;21.60;62.10;;;;;;6266723;28;20107;-72
2023/07/04 02:10:18;;;;;;;1.30;0.90;;;21.60;62.10;;;;;;6267369;28;20021;-72
2023/07/04 02:13:18;;;;;;;0.93;0.77;;;21.60;62.10;;;;;;6267200;28;20388;-72
2023/07/04 02:16:19;;;;;;;0.82;0.70;;;21.60;62.10;;;;;;6267026;28;20499;-72
2023/07/04 02:19:19;;;;;;;1.70;0.80;;;21.60;62.10;;;;;;6267136;28;20029;-72
2023/07/04 02:22:20;;;;;;;1.17;0.95;;;21.60;62.10;;;;;;6267190;28;20037;-72
2023/07/04 02:25:21;;;;;;;0.90;0.70;;;21.60;62.10;;;;;;6261981;28;20033;-72
2023/07/04 02:28:22;;;;;;;0.77;0.70;;;21.60;62.20;;;;;;6267038;28;20032;-72
2023/07/04 02:31:23;;;;;;;1.15;0.80;;;21.60;62.10;;;;;;6266454;28;20102;-72
2023/07/04 02:34:24;;;;;;;1.02;0.80;;;21.60;62.20;;;;;;6272059;28;20593;-72
2023/07/04 02:37:25;;;;;;;1.40;0.85;;;21.60;62.10;;;;;;6271917;28;20025;-72
2023/07/04 02:40:25;;;;;;;2.05;0.80;;;21.60;62.20;;;;;;6271003;28;20028;-72
2023/07/04 02:43:26;;;;;;;1.23;0.82;;;21.60;62.20;;;;;;6271257;28;20048;-72
2023/07/04 02:46:27;;;;;;;0.77;0.60;;;21.60;62.20;;;;;;6264948;28;20649;-72
2023/07/04 02:49:27;;;;;;;1.17;0.70;;;21.60;62.20;;;;;;6271706;28;20028;-72
2023/07/04 02:52:28;;;;;;;1.17;0.80;;;21.60;62.20;;;;;;6271248;28;20025;-72
2023/07/04 02:55:29;;;;;;;0.75;0.73;;;21.60;62.20;;;;;;6268200;28;20503;-72
2023/07/04 02:58:29;;;;;;;1.38;0.95;;;21.60;62.20;;;;;;6263608;28;20395;-73
2023/07/04 03:01:30;;;;;;;1.23;0.77;;;21.60;62.20;;;;;;6270765;28;20021;-72
2023/07/04 03:04:31;;;;;;;0.90;0.60;;;21.60;62.20;;;;;;6271435;28;20484;-72
2023/07/04 03:07:31;;;;;;;2.00;0.73;;;21.60;62.20;;;;;;6270787;28;20021;-72
2023/07/04 03:10:32;;;;;;;0.50;0.50;;;21.60;62.20;;;;;;6266204;28;20506;-72
2023/07/04 03:13:34;;;;;;;0.93;0.70;;;21.60;62.20;;;;;;6267643;28;20388;-72
2023/07/04 03:16:35;;;;;;;1.60;0.90;;;21.60;62.20;;;;;;6267554;28;20455;-72
2023/07/04 03:19:35;;;;;;;1.45;0.68;;;21.60;62.20;;;;;;6270418;28;20025;-72
2023/07/04 03:22:37;;;;;;;1.13;0.80;;;21.60;62.20;;;;;;6267383;28;20063;-72
2023/07/04 03:25:38;;;;;;;1.33;0.80;;;21.60;62.20;;;;;;6270463;28;20021;-72
2023/07/04 03:28:38;;;;;;;1.25;0.88;;;21.60;62.20;;;;;;6270280;28;20495;-72
2023/07/04 03:31:39;;;;;;;2.88;1.13;;;21.60;62.20;;;;;;6269923;28;20045;-72
2023/07/04 03:34:41;;;;;;;0.88;0.80;;;21.60;62.20;;;;;;6264483;28;20052;-72
2023/07/04 03:37:42;;;;;;;1.48;0.90;;;21.60;62.20;;;;;;6270344;28;20028;-72
2023/07/04 03:40:43;;;;;;;0.70;0.70;;;21.60;62.20;;;;;;6270203;28;20277;-72
2023/07/04 03:43:43;;;;;;;0.93;0.85;;;21.60;62.20;;;;;;6269238;28;20021;-72
2023/07/04 03:46:44;;;;;;;0.85;0.80;;;21.60;62.20;;;;;;6269722;28;20032;-72
2023/07/04 03:49:45;;;;;;;1.02;0.73;;;21.60;62.20;;;;;;6270406;28;20108;-72
2023/07/04 03:52:45;;;;;;;1.13;0.75;;;21.60;62.20;;;;;;6269498;28;20020;-72
2023/07/04 03:55:49;;;;;;;0.98;0.80;;;21.60;62.20;;;;;;6270109;28;20522;-72
2023/07/04 03:58:49;;;;;;;1.10;0.77;;;21.60;62.20;;;;;;6269572;28;20104;-72
2023/07/04 04:01:50;;;;;;;2.03;0.73;;;21.60;62.20;;;;;;6269644;28;20387;-72
2023/07/04 04:04:51;;;;;;;0.95;0.85;;;21.60;62.20;;;;;;6269661;28;20021;-72
2023/07/04 04:07:51;;;;;;;1.40;1.00;;;21.60;62.20;;;;;;6269500;28;20028;-72
2023/07/04 04:10:52;;;;;;;1.10;0.82;;;21.60;62.20;;;;;;6269516;28;20555;-72
2023/07/04 04:13:52;;;;;;;0.85;0.75;;;21.60;63.10;;;;;;6264790;28;20033;-72
2023/07/04 04:16:53;;;;;;;0.80;0.73;;;21.60;62.20;;;;;;6269482;28;20059;-72
2023/07/04 04:19:54;;;;;;;1.08;0.80;;;21.60;62.20;;;;;;6269146;28;20392;-72
2023/07/04 04:22:54;;;;;;;1.02;0.80;;;21.60;62.20;;;;;;6268997;28;20048;-72
2023/07/04 04:25:57;;;;;;;0.98;0.88;;;21.60;62.20;;;;;;6265959;28;20040;-72
2023/07/04 04:28:58;;;;;;;1.60;0.80;;;21.60;62.20;;;;;;6268963;28;20021;-72
2023/07/04 04:31:59;;;;;;;1.45;0.90;;;21.60;62.30;;;;;;6268819;28;20653;-72
2023/07/04 04:34:59;;;;;;;1.20;0.80;;;21.60;63.10;;;;;;6268287;28;20025;-72
2023/07/04 04:38:00;;;;;;;1.45;0.90;;;21.60;62.30;;;;;;6268806;28;20033;-72
2023/07/04 04:41:08;;;;;;;1.08;0.80;;;21.60;62.20;;;;;;6255561;28;20784;-72
2023/07/04 04:44:08;;;;;;;1.50;0.93;;;21.60;62.20;;;;;;6254707;28;20029;-72
2023/07/04 04:47:09;;;;;;;0.75;0.70;;;21.60;62.30;;;;;;6267442;28;20036;-72
2023/07/04 04:50:10;;;;;;;1.00;0.80;;;21.60;62.20;;;;;;6266888;28;20322;-72
2023/07/04 04:53:14;;;;;;;0.77;0.73;;;21.60;62.20;;;;;;6266972;28;20028;-72
2023/07/04 04:56:15;;;;;;;0.75;0.65;;;21.60;62.30;;;;;;6266794;28;20033;-72
2023/07/04 04:59:15;;;;;;;0.93;0.60;;;21.60;62.20;;;;;;6267253;28;20037;-72
2023/07/04 05:02:16;;;;;;;0.73;0.63;;;21.60;62.20;;;;;;6255841;28;20033;-72
2023/07/04 05:05:18;;;;;;;1.23;0.90;;;21.60;62.30;;;;;;6268160;28;20029;-72
2023/07/04 05:08:18;;;;;;;1.10;0.80;;;21.60;62.20;;;;;;6266925;28;20487;-72
2023/07/04 05:11:20;;;;;;;1.05;0.77;;;21.60;62.20;;;;;;6264848;28;20044;-72
2023/07/04 05:14:20;;;;;;;7.10;0.98;;;21.60;62.30;;;;;;6266811;28;20037;-72
2023/07/04 05:17:21;;;;;;;12.35;2.38;;;21.50;62.30;;;;;;6267223;28;20084;-71
2023/07/04 05:20:25;;;;;;;2.65;1.30;;;21.50;61.50;;;;;;6267291;28;20055;-72
2023/07/04 05:23:25;;;;;;;3.25;1.50;;;21.50;62.10;;;;;;6266159;28;20025;-72
2023/07/04 05:26:28;;;;;;;5.65;2.15;;;21.50;61.90;;;;;;6267217;28;20565;-72
2023/07/04 05:29:28;;;;;;;14.57;2.78;;;21.50;61.50;;;;;;6267000;28;20483;-72
2023/07/04 05:32:30;;;;;;;5.65;2.58;;;21.50;61.20;;;;;;6267396;28;20097;-72
2023/07/04 05:35:30;;;;;;;16.27;2.95;;;21.50;61.00;;;;;;6267454;28;20021;-72
2023/07/04 05:38:31;;;;;;;13.93;3.55;;;21.50;61.20;;;;;;6261657;28;20048;-72
2023/07/04 05:41:34;;;;;;;7.78;3.70;;;21.50;60.60;;;;;;6266907;28;20060;-72
2023/07/04 05:44:34;;;;;;;13.50;3.65;;;21.50;58.80;;;;;;6266695;28;20033;-72
2023/07/04 05:47:35;;;;;;;10.57;4.15;;;21.40;59.90;;;;;;6267788;28;20116;-72
2023/07/04 05:50:36;;;;;;;13.10;4.05;;;21.50;59.00;;;;;;6268015;28;20083;-72
2023/07/04 05:53:38;;;;;;;11.55;4.65;;;21.50;57.30;;;;;;6267433;28;20032;-72
2023/07/04 05:56:38;;;;;;;9.60;3.75;;;21.50;57.10;;;;;;6267744;28;20029;-72
2023/07/04 05:59:39;;;;;;;7.63;3.83;;;21.50;59.40;;;;;;6263513;28;20379;-72
2023/07/04 06:02:40;;;;;;;7.25;3.58;;;21.50;59.40;;;;;;6256690;28;20408;-72
2023/07/04 06:05:40;;;;;;;6.78;3.78;;;21.50;59.40;;;;;;6270087;28;20391;-72
2023/07/04 06:08:41;;;;;;;6.65;3.38;;;21.50;59.50;;;;;;6273925;28;20104;-72
2023/07/04 06:11:45;;;;;;;8.68;3.67;;;21.50;59.60;;;;;;6274982;28;20044;-72
2023/07/04 06:14:46;;;;;;;6.72;3.35;;;21.50;59.70;;;;;;6249458;28;20026;-72
2023/07/04 06:17:46;;;;;;;6.13;3.58;;;21.50;59.70;;;;;;6249726;28;20044;-72
2023/07/04 06:20:47;;;;;;;7.13;3.35;;;21.50;59.80;;;;;;6272035;28;20096;-72
2023/07/04 06:23:49;;;;;;;10.70;3.55;;;21.50;59.90;;;;;;6273641;28;20033;-72
2023/07/04 06:26:49;;;;;;;7.05;3.47;;;21.50;60.00;;;;;;6274094;28;20060;-72
2023/07/04 06:29:53;;;;;;;8.30;3.30;;;21.50;60.00;;;;;;6273876;28;20075;-72
2023/07/04 06:32:54;;;;;;;6.93;3.50;;;21.50;60.00;;;;;;6274072;28;20079;-72
2023/07/04 06:35:55;;;;;;;10.00;3.47;;;21.50;60.00;;;;;;6273848;28;20022;-72
2023/07/04 06:39:00;;;;;;;9.05;3.72;;;21.50;60.00;;;;;;6273422;28;20052;-72
2023/07/04 06:42:00;;;;;;;6.13;3.53;;;21.50;60.20;;;;;;6273219;28;20503;-73
2023/07/04 06:45:01;;;;;;;6.30;3.47;;;21.50;61.00;;;;;;6273329;28;20032;-72
2023/07/04 06:48:02;;;;;;;4.85;3.28;;;21.50;60.30;;;;;;6273008;28;20029;-72
2023/07/04 06:51:06;;;;;;;6.07;3.00;;;21.50;60.20;;;;;;6273825;28;20406;-72
2023/07/04 06:54:06;;;;;;;8.90;3.40;;;21.50;60.30;;;;;;6272756;28;20372;-72
2023/07/04 06:57:07;;;;;;;5.43;2.97;;;21.50;60.30;;;;;;6268530;28;20029;-72
2023/07/04 07:00:08;;;;;;;5.85;3.05;;;21.50;60.40;;;;;;6268467;28;20555;-72
2023/07/04 07:03:08;;;;;;;7.07;3.67;;;21.50;60.40;;;;;;6273398;28;20025;-72
2023/07/04 07:06:12;;;;;;;5.30;3.03;;;21.50;60.40;;;;;;6273135;28;20025;-72
2023/07/04 07:09:12;;;;;;;5.47;3.00;;;21.50;60.40;;;;;;6272888;28;20025;-72
2023/07/04 07:12:13;;;;;;;5.50;3.05;;;21.50;60.40;;;;;;6273376;28;20488;-72
2023/07/04 07:15:14;;;;;;;5.80;3.33;;;21.50;60.50;;;;;;6272923;28;20036;-72
2023/07/04 07:18:15;;;;;;;9.82;3.30;;;21.50;60.60;;;;;;6272126;28;20017;-72
2023/07/04 07:21:19;;;;;;;5.35;3.15;;;21.50;60.60;;;;;;6254773;28;20120;-72
2023/07/04 07:24:20;;;;;;;5.37;3.03;;;21.50;60.60;;;;;;6272830;28;20040;-72
2023/07/04 07:27:21;;;;;;;5.63;2.78;;;21.50;60.70;;;;;;6272557;28;20031;-72
2023/07/04 07:30:21;;;;;;;5.97;2.72;;;21.50;60.70;;;;;;6272655;28;20049;-72
2023/07/04 07:33:22;;;;;;;5.90;3.17;;;21.50;60.70;;;;;;6272738;28;20013;-72
2023/07/04 07:36:28;;;;;;;5.85;3.15;;;21.50;60.70;;;;;;6269543;28;20025;-72
2023/07/04 07:39:29;;;;;;;3.83;2.40;;;21.50;60.80;;;;;;6259261;28;20028;-72
2023/07/04 07:42:32;;;;;;;5.05;2.90;;;21.50;61.00;;;;;;6267894;28;20037;-72
2023/07/04 07:45:33;;;;;;;3.72;2.55;;;21.50;60.80;;;;;;6267890;28;20021;-73
2023/07/04 07:48:34;;;;;;;3.63;2.30;;;21.50;60.80;;;;;;6271165;28;20090;-72
2023/07/04 07:51:35;;;;;;;3.90;2.53;;;21.50;60.80;;;;;;6271179;28;20426;-72
2023/07/04 07:54:36;;;;;;;4.75;2.70;;;21.50;60.80;;;;;;6270957;28;20061;-72
2023/07/04 07:57:37;;;;;;;5.80;2.70;;;21.50;60.80;;;;;;6271157;28;20421;-73
2023/07/04 08:00:37;;;;;;;4.53;2.70;;;21.50;60.70;;;;;;6271448;28;20017;-72
2023/07/04 08:03:38;;;;;;;4.22;2.60;;;21.50;60.40;;;;;;6271128;28;20066;-72
2023/07/04 08:06:42;;;;;;;4.10;2.75;;;21.50;60.30;;;;;;6271502;28;20415;-71
2023/07/04 08:09:42;;;;;;;4.97;2.63;;;21.50;59.70;;;;;;6270635;28;20108;-72
2023/07/04 08:12:43;;;;;;;6.68;2.63;;;21.50;59.50;;;;;;6271420;28;20021;-72
2023/07/04 08:15:53;;;;;;;6.05;3.10;;;21.50;59.20;;;;;;6269898;28;20021;-72
2023/07/04 08:18:55;;;;;;;5.03;3.03;;;21.50;59.90;;;;;;6270661;28;20032;-72
2023/07/04 08:21:55;;;;;;;4.95;2.80;;;21.50;60.10;;;;;;6265396;28;20041;-73
2023/07/04 08:24:58;;;;;;;3.35;2.42;;;21.50;60.30;;;;;;6270382;28;20051;-72
2023/07/04 08:27:59;;;;;;;4.68;2.60;;;21.50;60.20;;;;;;6270330;28;20527;-72
2023/07/04 08:31:05;;;;;;;5.35;2.90;;;21.50;60.20;;;;;;6269771;28;20421;-72
2023/07/04 08:34:06;;;;;;;5.28;2.47;;;21.50;60.40;;;;;;6269993;28;20210;-72
2023/07/04 08:37:06;;;;;;;5.72;2.58;;;21.50;60.40;;;;;;6269908;28;20017;-72
2023/07/04 08:40:08;;;;;;;4.18;2.20;;;21.50;60.50;;;;;;6270107;28;20033;-72
2023/07/04 08:43:12;;;;;;;4.35;2.47;;;21.50;60.40;;;;;;6265194;28;20319;-72
2023/07/04 08:46:15;;;;;;;5.07;2.53;;;21.50;60.30;;;;;;6267444;28;20027;-72
2023/07/04 08:49:28;;;;;;;4.28;2.45;;;21.50;60.30;;;;;;6269747;28;20029;-72
2023/07/04 08:52:34;;;;;;;2.90;2.13;;;21.50;60.50;;;;;;6261370;28;20508;-72
2023/07/04 08:55:41;;;;;;;4.80;2.25;;;21.60;60.70;;;;;;6269459;28;20021;-72
2023/07/04 08:59:13;;;;;;;3.17;2.17;;;21.50;60.60;;;;;;6244903;28;20021;-72
2023/07/04 09:02:40;;;;;;;3.65;2.20;;;21.50;60.60;;;;;;6267516;28;20076;-72
2023/07/04 09:05:49;;;;;;;5.75;2.30;;;21.50;60.70;;;;;;6263985;28;20060;-72
2023/07/04 09:09:20;;;;;;;5.00;2.38;;;21.50;60.60;;;;;;6260457;28;20032;-72
2023/07/04 09:12:21;;;;;;;6.72;2.35;;;21.60;60.70;;;;;;6251532;28;20021;-72
2023/07/04 09:15:36;;;;;;;4.68;2.30;;;21.50;60.70;;;;;;6269115;28;20020;-72
2023/07/04 09:18:37;;;;;;;3.30;2.17;;;21.50;60.70;;;;;;6263089;28;20025;-72
2023/07/04 09:21:37;;;;;;;4.55;2.65;;;21.50;60.80;;;;;;6268470;28;20037;-72
2023/07/04 09:24:38;;;;;;;4.60;2.17;;;21.50;60.80;;;;;;6260707;28;20040;-72
2023/07/04 09:27:39;;;;;;;3.63;1.95;;;21.50;60.80;;;;;;6266006;28;20028;-72
2023/07/04 09:30:39;;;;;;;2.50;1.80;;;21.60;60.90;;;;;;6268533;28;20103;-72
2023/07/04 09:33:42;;;;;;;2.80;2.03;;;21.60;60.70;;;;;;6264328;28;20029;-73
2023/07/04 09:36:42;;;;;;;3.20;1.92;;;21.60;60.60;;;;;;6256952;28;20025;-72
2023/07/04 09:39:54;;;;;;;3.13;2.10;;;21.70;60.60;;;;;;6268694;28;20495;-72
2023/07/04 09:42:55;;;;;;;2.25;1.73;;;21.70;60.80;;;;;;6267989;28;20040;-72
2023/07/04 09:46:22;;;;;;;2.55;1.80;;;21.70;60.70;;;;;;6268370;28;20484;-72
2023/07/04 09:49:33;;;;;;;2.85;1.90;;;21.70;60.90;;;;;;6267944;28;20028;-72
2023/07/04 09:52:34;;;;;;;2.85;1.70;;;21.80;61.20;;;;;;6268549;28;20029;-72
2023/07/04 09:55:39;;;;;;;2.85;1.73;;;21.80;61.00;;;;;;6265099;28;20032;-72
2023/07/04 09:58:42;;;;;;;;;;;21.80;61.00;;;;;;6268483;28;20507;-72
2023/07/04 10:01:52;;;;;;;3.90;1.92;;;21.80;61.00;;;;;;6268017;28;19912;-72
2023/07/04 10:04:53;;;;;;;2.78;1.80;;;21.80;61.20;;;;;;6263260;28;20029;-72
2023/07/04 10:08:20;;;;;;;2.47;1.65;;;21.80;61.30;;;;;;6263426;28;20033;-72
2023/07/04 10:11:24;;;;;;;3.75;1.70;;;21.80;60.90;;;;;;6263686;28;20033;-72
2023/07/04 10:14:33;;;;;;;2.17;1.60;;;21.80;61.20;;;;;;6266196;28;20462;-73
2023/07/04 10:17:35;;;;;;;2.78;1.98;;;21.80;61.20;;;;;;6266366;28;20052;-72
2023/07/04 10:20:40;;;;;;;3.08;2.05;;;21.70;61.10;;;;;;6266896;28;20048;-72
2023/07/04 10:23:41;;;;;;;3.60;1.83;;;21.70;61.20;;;;;;6265685;28;20066;-72
2023/07/04 10:26:43;;;;;;;2.72;1.70;;;21.70;61.30;;;;;;6265010;28;20028;-72
2023/07/04 10:29:54;;;;;;;6.07;1.70;;;21.70;61.30;;;;;;6254595;28;20049;-72
2023/07/04 10:33:03;;;;;;;2.20;1.65;;;21.70;61.30;;;;;;6257062;28;20033;-72
2023/07/04 10:36:07;;;;;;;2.38;1.70;;;21.70;61.30;;;;;;6261545;28;20112;-72
2023/07/04 10:39:14;;;;;;;2.80;1.70;;;21.70;61.30;;;;;;6254523;28;20029;-72
2023/07/04 10:42:26;;;;;;;2.90;1.50;;;21.70;61.30;;;;;;6265813;28;20037;-72
2023/07/04 10:45:28;;;;;;;2.92;1.67;;;21.70;61.30;;;;;;6264450;28;20028;-72
2023/07/04 10:48:32;;;;;;;2.67;1.60;;;21.70;61.30;;;;;;6263624;28;20021;-72
2023/07/04 10:51:38;;;;;;;2.53;1.40;;;21.60;61.20;;;;;;6265414;28;20017;-72
2023/07/04 10:54:39;;;;;;;4.00;2.08;;;21.70;61.40;;;;;;6268924;28;20056;-72
2023/07/04 10:57:47;;;;;;;2.25;1.52;;;21.60;61.30;;;;;;6257160;28;20021;-72
2023/07/04 11:01:07;;;;;;;2.58;1.80;;;21.60;61.30;;;;;;6268119;28;20051;-73
2023/07/04 11:04:22;;;;;;;2.60;1.60;;;21.60;61.30;;;;;;6269887;28;20159;-72
2023/07/04 11:07:24;;;;;;;;;;;21.60;61.40;;;;;;6267975;28;20024;-72
2023/07/04 11:10:25;;;;;;;2.72;1.67;;;21.60;61.30;;;;;;6269826;28;19951;-73
2023/07/04 11:13:26;;;;;;;2.90;1.60;;;21.60;61.30;;;;;;6269482;28;20021;-72
2023/07/04 11:16:29;;;;;;;1.83;1.30;;;21.60;61.40;;;;;;6269780;28;20044;-72
2023/07/04 11:19:34;;;;;;;1.95;1.70;;;21.60;61.40;;;;;;6269708;28;20104;-72
2023/07/04 11:22:55;;;;;;;6.00;1.90;;;21.60;61.40;;;;;;6270028;28;20041;-72
2023/07/04 11:26:07;;;;;;;2.38;1.60;;;21.60;61.40;;;;;;6268626;28;20036;-72
2023/07/04 11:29:17;;;;;;;3.17;1.60;;;21.60;61.40;;;;;;6269265;28;20145;-72
2023/07/04 11:32:32;;;;;;;1.95;1.50;;;21.60;61.40;;;;;;6269333;28;20080;-72
2023/07/04 11:35:33;;;;;;;2.73;1.80;;;21.60;61.30;;;;;;6266104;28;20440;-72
2023/07/04 11:38:40;;;;;;;2.35;1.50;;;21.60;61.40;;;;;;6259872;28;20024;-72
2023/07/04 11:41:41;;;;;;;1.80;1.50;;;21.60;61.40;;;;;;6264160;28;20106;-72
2023/07/04 11:44:50;;;;;;;2.42;1.40;;;21.60;61.40;;;;;;6268553;28;20037;-72
2023/07/04 11:47:55;;;;;;;1.80;1.60;;;21.60;61.40;;;;;;6269160;28;20416;-72
2023/07/04 11:51:05;;;;;;;3.38;1.55;;;21.60;61.40;;;;;;6251234;28;20035;-72
2023/07/04 11:54:06;;;;;;;2.30;1.60;;;21.60;61.30;;;;;;6268442;28;20082;-72
2023/07/04 11:57:08;;;;;;;1.98;1.50;;;21.60;61.40;;;;;;6268799;28;20056;-72
2023/07/04 12:00:41;;;;;;;2.83;1.65;;;21.60;61.40;;;;;;6268674;28;20024;-72
2023/07/04 12:03:48;;;;;;;2.15;1.38;;;21.60;61.40;;;;;;6267830;28;20122;-72
2023/07/04 12:06:52;;;;;;;1.50;1.20;;;21.60;61.40;;;;;;6268200;28;20025;-72
2023/07/04 12:09:57;;;;;;;1.92;1.30;;;21.60;61.40;;;;;;6268613;28;20021;-72
2023/07/04 12:13:01;;;;;;;2.10;1.55;;;21.60;61.40;;;;;;6269115;28;20021;-72
2023/07/04 12:16:04;;;;;;;1.42;1.30;;;21.60;61.40;;;;;;6268179;28;20023;-72
2023/07/04 12:19:04;;;;;;;1.83;1.33;;;21.60;61.40;;;;;;6268556;28;20099;-72
2023/07/04 12:22:05;;;;;;;1.67;1.48;;;21.60;61.40;;;;;;6268370;28;20037;-72
2023/07/04 12:25:12;;;;;;;1.75;1.30;;;21.60;61.50;;;;;;6268092;28;20040;-72
2023/07/04 12:28:14;;;;;;;2.00;1.30;;;21.60;61.40;;;;;;6268198;28;20022;-72
2023/07/04 12:31:15;;;;;;;1.55;1.20;;;21.60;61.40;;;;;;6267578;28;20041;-72
2023/07/04 12:34:16;;;;;;;3.28;1.30;;;21.60;61.50;;;;;;6259186;28;20112;-72
2023/07/04 12:37:19;;;;;;;1.45;1.15;;;21.60;61.50;;;;;;6265696;28;20035;-72
2023/07/04 12:40:23;;;;;;;2.15;1.40;;;21.60;61.50;;;;;;6262513;28;20028;-72
2023/07/04 12:43:31;;;;;;;1.80;1.20;;;21.60;61.50;;;;;;6267465;28;20025;-72
2023/07/04 12:46:36;;;;;;;1.48;1.20;;;21.60;61.50;;;;;;6266409;28;20124;-72
2023/07/04 12:49:38;;;;;;;1.60;1.40;;;21.60;61.50;;;;;;6267941;28;20029;-72
2023/07/04 12:52:39;;;;;;;1.88;1.27;;;21.60;61.50;;;;;;6267160;28;20025;-72
2023/07/04 12:55:42;;;;;;;1.88;1.30;;;21.60;61.50;;;;;;6267092;28;20361;-72
2023/07/04 12:58:45;;;;;;;1.90;1.23;;;21.60;61.50;;;;;;6262770;28;20138;-72
2023/07/04 13:01:45;;;;;;;1.85;1.40;;;21.60;61.50;;;;;;6267276;28;20073;-72
2023/07/04 13:04:46;;;;;;;1.70;1.40;;;21.60;61.50;;;;;;6267253;28;20032;-72
2023/07/04 13:07:49;;;;;;;1.98;1.25;;;21.60;61.50;;;;;;6246844;28;20086;-72
2023/07/04 13:10:53;;;;;;;1.17;1.05;;;21.60;61.50;;;;;;6267029;28;20024;-72
2023/07/04 13:14:08;;;;;;;2.35;1.20;;;21.60;61.50;;;;;;6267198;28;20029;-73
2023/07/04 13:17:11;;;;;;;1.40;1.23;;;21.60;61.50;;;;;;6265594;28;20334;-72
2023/07/04 13:20:16;;;;;;;1.75;1.20;;;21.60;61.50;;;;;;6267029;28;20021;-72
2023/07/04 13:23:24;;;;;;;1.55;1.10;;;21.60;61.50;;;;;;6266396;28;20033;-72
2023/07/04 13:26:29;;;;;;;1.30;1.10;;;21.60;61.50;;;;;;6266909;28;20029;-72
2023/07/04 13:29:29;;;;;;;;;;;21.60;61.50;;;;;;6267116;28;20649;-72
2023/07/04 13:32:36;;;;;;;1.17;1.00;;;21.60;61.50;;;;;;6266657;28;20004;-73
2023/07/04 13:35:41;;;;;;;2.53;1.30;;;21.60;61.50;;;;;;6266235;28;20037;-72
2023/07/04 13:38:42;;;;;;;1.73;1.17;;;21.60;61.60;;;;;;6266529;28;20025;-72
2023/07/04 13:41:45;;;;;;;2.42;1.30;;;21.60;61.50;;;;;;6260271;28;20068;-72
2023/07/04 13:44:46;;;;;;;3.05;1.58;;;21.60;61.40;;;;;;6256642;28;20561;-74
2023/07/04 13:47:47;;;;;;;1.60;1.17;;;21.60;61.50;;;;;;6266711;28;20025;-72
2023/07/04 13:50:47;;;;;;;3.53;1.10;;;21.60;61.50;;;;;;6266277;28;20551;-72
2023/07/04 13:53:48;;;;;;;1.25;1.05;;;21.60;61.50;;;;;;6267071;28;20017;-72
2023/07/04 13:56:49;;;;;;;1.35;1.10;;;21.60;61.50;;;;;;6258638;28;20094;-72
2023/07/04 13:59:50;;;;;;;2.60;1.23;;;21.60;61.50;;;;;;6266630;28;20471;-72
2023/07/04 14:02:50;;;;;;;1.40;1.30;;;21.60;61.50;;;;;;6265458;28;20094;-72
2023/07/04 14:05:51;;;;;;;1.45;1.20;;;21.60;61.60;;;;;;6266014;28;20024;-72
2023/07/04 14:08:52;;;;;;;1.83;1.08;;;21.60;61.60;;;;;;6254706;28;20615;-72
2023/07/04 14:11:57;;;;;;;1.25;1.15;;;21.60;61.60;;;;;;6266250;28;20025;-72
2023/07/04 14:14:58;;;;;;;1.60;1.30;;;21.60;61.60;;;;;;6262787;28;20036;-72
2023/07/04 14:18:02;;;;;;;1.75;1.10;;;21.60;61.50;;;;;;6265867;28;20017;-73
2023/07/04 14:21:10;;;;;;;2.00;1.13;;;21.60;61.60;;;;;;6263446;28;20483;-72
2023/07/04 14:24:10;;;;;;;1.85;1.25;;;21.60;61.60;;;;;;6265269;28;20045;-72
2023/07/04 14:27:11;;;;;;;2.15;1.10;;;21.60;61.50;;;;;;6267499;28;20025;-72
2023/07/04 14:30:12;;;;;;;1.27;0.98;;;21.60;61.50;;;;;;6270275;28;20132;-73
2023/07/04 14:33:12;;;;;;;1.33;1.00;;;21.60;61.60;;;;;;6270604;28;20017;-72
2023/07/04 14:36:13;;;;;;;1.67;1.00;;;21.60;61.60;;;;;;6270681;28;20028;-70
2023/07/04 14:39:14;;;;;;;5.88;3.85;;;21.70;61.60;;;;;;6270502;28;20025;-72
2023/07/04 14:42:14;;;;;;;9.73;2.15;;;21.70;61.70;;;;;;6270237;28;20040;-71
2023/07/04 14:45:15;;;;;;;5.97;2.30;;;21.80;61.30;;;;;;6269611;28;20029;-72
2023/07/04 14:48:15;;;;;;;20.50;2.50;;;21.90;61.40;;;;;;6270565;28;20049;-73
2023/07/04 14:51:16;;;;;;;10.93;2.20;;;21.90;61.20;;;;;;6270896;28;20021;-71
2023/07/04 14:54:17;;;;;;;4.90;2.00;;;21.90;61.30;;;;;;6270448;28;20027;-71
2023/07/04 14:57:17;;;;;;;5.60;1.55;;;21.80;61.30;;;;;;6269505;28;20025;-71
2023/07/04 15:00:22;;;;;;;5.13;2.03;;;21.80;61.30;;;;;;6270485;28;20040;-71
2023/07/04 15:03:23;;;;;;;4.15;1.83;;;21.80;61.30;;;;;;6270903;28;20032;-71
2023/07/04 15:06:24;;;;;;;3.22;1.80;;;21.70;61.10;;;;;;6270085;28;20455;-71
2023/07/04 15:09:25;;;;;;;3.10;1.90;;;21.80;61.50;;;;;;6265421;28;20428;-71
2023/07/04 15:12:26;;;;;;;3.55;1.85;;;21.70;61.30;;;;;;6269926;28;20033;-71
2023/07/04 15:15:26;;;;;;;2.17;1.55;;;21.80;61.30;;;;;;6269787;28;20395;-71
2023/07/04 15:18:32;;;;;;;4.47;2.33;;;21.80;61.30;;;;;;6269161;28;20025;-71
2023/07/04 15:21:32;;;;;;;3.58;1.55;;;21.80;61.40;;;;;;6252270;28;20032;-71
2023/07/04 15:24:33;;;;;;;4.05;1.80;;;21.70;61.40;;;;;;6269328;28;20045;-71
2023/07/04 15:27:34;;;;;;;3.20;1.60;;;21.70;61.50;;;;;;6269189;28;20054;-71
2023/07/04 15:30:34;;;;;;;4.82;1.95;;;21.70;61.60;;;;;;6263184;28;20049;-71
2023/07/04 15:33:35;;;;;;;4.28;1.63;;;21.70;61.70;;;;;;6266346;28;20423;-71
2023/07/04 15:36:36;;;;;;;2.85;1.52;;;21.70;61.70;;;;;;6249434;28;20246;-71
2023/07/04 15:39:37;;;;;;;3.15;1.60;;;21.70;61.70;;;;;;6268143;28;20075;-71
2023/07/04 15:42:49;;;;;;;3.60;1.63;;;21.70;61.70;;;;;;6269563;28;20040;-71
2023/07/04 15:45:58;;;;;;;2.28;1.48;;;21.70;61.70;;;;;;6264244;28;20017;-72
2023/07/04 15:48:59;;;;;;;3.00;1.33;;;21.70;61.80;;;;;;6252725;28;20116;-71
2023/07/04 15:52:00;;;;;;;2.85;1.50;;;21.70;61.80;;;;;;6269608;28;20021;-71
2023/07/04 15:55:00;;;;;;;2.33;1.60;;;21.70;61.80;;;;;;6265979;28;20561;-71